createdAt,value
2022-09-24T00:01:51.703Z,82.70
2022-09-24T00:04:20.246Z,82.80
2022-09-24T00:06:49.873Z,82.80
2022-09-24T00:09:21.796Z,83.00
2022-09-24T00:11:51.513Z,83.00
2022-09-24T00:14:20.163Z,83.00
2022-09-24T00:16:48.238Z,85.50
2022-09-24T00:19:16.632Z,82.80
2022-09-24T00:21:44.770Z,82.70
2022-09-24T00:24:37.699Z,83.90
2022-09-24T00:27:06.005Z,84.00
2022-09-24T00:29:35.641Z,84.40
2022-09-24T00:32:04.783Z,86.90
2022-09-24T00:34:33.018Z,84.10
2022-09-24T00:37:01.037Z,86.50
2022-09-24T00:39:30.394Z,83.50
2022-09-24T00:41:58.260Z,84.50
2022-09-24T00:44:53.631Z,83.40
2022-09-24T00:47:29.975Z,84.20
2022-09-24T00:50:08.015Z,83.90
2022-09-24T00:52:39.143Z,83.90
2022-09-24T00:55:10.529Z,83.50
2022-09-24T00:57:39.649Z,83.80
2022-09-24T01:00:08.714Z,83.80
2022-09-24T01:02:38.229Z,83.50
2022-09-24T01:05:06.942Z,83.70
2022-09-24T01:07:35.326Z,83.50
2022-09-24T01:10:03.505Z,83.50
2022-09-24T01:12:37.958Z,83.60
2022-09-24T01:15:17.015Z,84.10
2022-09-24T01:17:52.367Z,84.30
2022-09-24T01:20:46.758Z,84.10
2022-09-24T01:23:38.188Z,84.50
2022-09-24T01:26:20.772Z,84.40
2022-09-24T01:29:21.571Z,83.90
2022-09-24T01:31:55.829Z,84.40
2022-09-24T01:34:29.770Z,84.10
2022-09-24T01:36:59.756Z,84.10
2022-09-24T01:39:29.138Z,85.80
2022-09-24T01:41:57.455Z,86.60
2022-09-24T01:44:27.187Z,87.00
2022-09-24T01:46:56.197Z,86.10
2022-09-24T01:49:24.336Z,84.20
2022-09-24T01:51:56.479Z,83.80
2022-09-24T01:54:28.782Z,85.30
2022-09-24T01:57:01.689Z,84.50
2022-09-24T01:59:36.683Z,84.50
2022-09-24T02:02:11.009Z,84.70
2022-09-24T02:04:43.528Z,85.00
2022-09-24T02:07:16.120Z,85.20
2022-09-24T02:09:45.126Z,87.90
2022-09-24T02:12:18.375Z,84.40
2022-09-24T02:14:52.591Z,85.00
2022-09-24T02:17:23.125Z,88.40
2022-09-24T02:19:51.652Z,84.70
2022-09-24T02:22:19.571Z,84.60
2022-09-24T02:24:50.773Z,84.60
2022-09-24T02:27:19.507Z,84.80
2022-09-24T02:29:49.058Z,84.50
2022-09-24T02:32:20.421Z,87.50
2022-09-24T02:35:02.014Z,84.80
2022-09-24T02:37:30.375Z,84.60
2022-09-24T02:39:58.439Z,87.70
2022-09-24T02:42:26.449Z,86.70
2022-09-24T02:44:57.390Z,84.20
2022-09-24T02:47:25.469Z,84.20
2022-09-24T02:49:53.601Z,84.40
2022-09-24T02:52:22.385Z,84.50
2022-09-24T02:54:51.163Z,84.40
2022-09-24T02:57:19.428Z,84.50
2022-09-24T02:59:47.433Z,84.60
2022-09-24T03:02:16.894Z,84.60
2022-09-24T03:04:44.873Z,84.70
2022-09-24T03:07:14.503Z,86.80
2022-09-24T03:09:42.620Z,84.40
2022-09-24T03:12:10.858Z,84.50
2022-09-24T03:14:38.710Z,84.70
2022-09-24T03:17:06.599Z,87.00
2022-09-24T03:19:35.867Z,88.00
2022-09-24T03:22:03.978Z,86.90
2022-09-24T03:24:31.944Z,88.40
2022-09-24T03:26:59.774Z,85.10
2022-09-24T03:29:41.648Z,85.10
2022-09-24T03:32:09.487Z,85.20
2022-09-24T03:34:38.600Z,85.20
2022-09-24T03:37:08.468Z,87.90
2022-09-24T03:39:36.307Z,85.30
2022-09-24T03:42:04.261Z,85.40
2022-09-24T03:44:32.216Z,85.30
2022-09-24T03:47:00.047Z,87.60
2022-09-24T03:49:28.017Z,89.40
2022-09-24T03:51:57.237Z,88.10
2022-09-24T03:54:25.108Z,86.40
2022-09-24T03:56:52.931Z,85.80
2022-09-24T03:59:20.940Z,85.80
2022-09-24T04:01:48.796Z,85.80
2022-09-24T04:04:16.792Z,87.10
2022-09-24T04:06:44.702Z,85.70
2022-09-24T04:09:13.887Z,85.70
2022-09-24T04:11:42.697Z,85.90
2022-09-24T04:14:10.544Z,87.50
2022-09-24T04:16:38.410Z,85.60
2022-09-24T04:19:08.089Z,85.80
2022-09-24T04:21:36.048Z,87.00
2022-09-24T04:24:04.165Z,85.70
2022-09-24T04:26:33.302Z,85.70
2022-09-24T04:29:01.087Z,86.00
2022-09-24T04:31:29.206Z,89.20
2022-09-24T04:33:57.273Z,86.00
2022-09-24T04:36:25.256Z,86.00
2022-09-24T04:38:53.064Z,86.00
2022-09-24T04:41:20.956Z,88.90
2022-09-24T04:43:51.320Z,87.90
2022-09-24T04:46:19.884Z,86.30
2022-09-24T04:48:47.718Z,86.30
2022-09-24T04:51:17.599Z,87.00
2022-09-24T04:53:47.812Z,86.20
2022-09-24T04:56:15.682Z,87.40
2022-09-24T04:58:43.693Z,88.90
2022-09-24T05:01:13.896Z,88.90
2022-09-24T05:03:41.727Z,86.50
2022-09-24T05:06:09.744Z,86.30
2022-09-24T05:08:37.701Z,88.80
2022-09-24T05:11:05.748Z,86.30
2022-09-24T05:13:33.913Z,86.30
2022-09-24T05:16:02.064Z,89.50
2022-09-24T05:18:31.448Z,86.30
2022-09-24T05:20:59.321Z,86.50
2022-09-24T05:23:27.213Z,86.50
2022-09-24T05:26:12.675Z,87.80
2022-09-24T05:28:42.792Z,88.90
2022-09-24T05:31:10.819Z,86.70
2022-09-24T05:33:40.364Z,86.70
2022-09-24T05:36:08.353Z,86.80
2022-09-24T05:38:38.832Z,87.90
2022-09-24T05:41:09.383Z,88.30
2022-09-24T05:43:37.895Z,87.90
2022-09-24T05:46:06.347Z,87.50
2022-09-24T05:48:34.576Z,87.30
2022-09-24T05:51:03.856Z,87.00
2022-09-24T05:53:31.816Z,87.10
2022-09-24T05:55:59.716Z,87.10
2022-09-24T05:58:27.871Z,87.30
2022-09-24T06:00:56.019Z,87.10
2022-09-24T06:03:24.051Z,87.00
2022-09-24T06:05:52.092Z,86.80
2022-09-24T06:08:22.115Z,86.90
2022-09-24T06:10:50.756Z,89.10
2022-09-24T06:13:20.837Z,86.80
2022-09-24T06:15:48.769Z,88.50
2022-09-24T06:18:16.913Z,86.90
2022-09-24T06:20:46.899Z,86.80
2022-09-24T06:23:14.884Z,86.90
2022-09-24T06:25:44.254Z,87.60
2022-09-24T06:28:12.118Z,87.60
2022-09-24T06:30:41.229Z,87.30
2022-09-24T06:33:11.359Z,87.30
2022-09-24T06:35:40.935Z,87.50
2022-09-24T06:38:12.386Z,87.70
2022-09-24T06:40:40.900Z,87.80
2022-09-24T06:43:11.940Z,87.40
2022-09-24T06:45:40.896Z,87.90
2022-09-24T06:48:10.671Z,87.50
2022-09-24T06:50:41.536Z,87.90
2022-09-24T06:53:10.986Z,88.00
2022-09-24T06:55:40.298Z,88.00
2022-09-24T06:58:11.856Z,87.90
2022-09-24T07:00:40.245Z,87.90
2022-09-24T07:03:08.870Z,87.60
2022-09-24T07:05:42.555Z,87.80
2022-09-24T07:08:11.695Z,87.70
2022-09-24T07:10:43.979Z,87.70
2022-09-24T07:13:14.908Z,88.20
2022-09-24T07:15:44.078Z,88.20
2022-09-24T07:18:13.399Z,88.10
2022-09-24T07:20:41.979Z,87.90
2022-09-24T07:23:12.183Z,87.60
2022-09-24T07:25:40.621Z,88.00
2022-09-24T07:28:11.132Z,87.70
2022-09-24T07:30:41.579Z,87.90
2022-09-24T07:33:09.882Z,87.90
2022-09-24T07:35:39.440Z,88.30
2022-09-24T07:38:12.066Z,87.90
2022-09-24T07:40:40.748Z,87.90
2022-09-24T07:43:12.369Z,88.00
2022-09-24T07:45:43.200Z,87.60
2022-09-24T07:48:13.011Z,87.90
2022-09-24T07:50:42.712Z,88.20
2022-09-24T07:53:12.479Z,88.00
2022-09-24T07:55:41.039Z,88.00
2022-09-24T07:58:12.835Z,87.80
2022-09-24T08:00:42.916Z,87.90
2022-09-24T08:03:11.444Z,87.90
2022-09-24T08:05:47.883Z,88.00
2022-09-24T08:08:18.965Z,88.30
2022-09-24T08:10:47.149Z,87.90
2022-09-24T08:13:15.983Z,87.90
2022-09-24T08:15:46.220Z,87.80
2022-09-24T08:18:14.280Z,87.90
2022-09-24T08:20:42.406Z,87.90
2022-09-24T08:23:11.324Z,87.90
2022-09-24T08:25:39.617Z,88.00
2022-09-24T08:28:10.632Z,87.90
2022-09-24T08:30:40.027Z,88.20
2022-09-24T08:33:09.601Z,88.10
2022-09-24T08:35:40.139Z,87.90
2022-09-24T08:38:09.118Z,88.10
2022-09-24T08:40:39.968Z,88.20
2022-09-24T08:43:20.771Z,88.10
2022-09-24T08:46:12.409Z,88.10
2022-09-24T08:48:45.666Z,87.90
2022-09-24T08:51:18.047Z,88.00
2022-09-24T08:53:50.165Z,88.00
2022-09-24T08:56:22.532Z,87.70
2022-09-24T08:58:55.487Z,88.20
2022-09-24T09:01:34.520Z,88.30
2022-09-24T09:04:15.659Z,88.50
2022-09-24T09:06:58.745Z,88.40
2022-09-24T09:09:33.825Z,88.60
2022-09-24T09:12:05.138Z,88.30
2022-09-24T09:14:42.525Z,88.40
2022-09-24T09:17:25.366Z,88.60
2022-09-24T09:19:58.559Z,88.80
2022-09-24T09:22:31.003Z,88.80
2022-09-24T09:25:04.998Z,88.60
2022-09-24T09:27:33.212Z,88.60
2022-09-24T09:30:10.405Z,88.30
2022-09-24T09:32:52.078Z,88.80
2022-09-24T09:35:29.321Z,89.10
2022-09-24T09:38:08.148Z,89.40
2022-09-24T09:40:42.785Z,89.50
2022-09-24T09:43:13.224Z,89.40
2022-09-24T09:45:47.710Z,89.40
2022-09-24T09:48:20.919Z,89.30
2022-09-24T09:50:53.305Z,89.10
2022-09-24T09:53:22.167Z,89.00
2022-09-24T09:55:55.457Z,88.80
2022-09-24T09:58:25.832Z,88.90
2022-09-24T10:01:03.911Z,89.00
2022-09-24T10:03:34.890Z,88.90
2022-09-24T10:06:07.812Z,89.00
2022-09-24T10:08:35.959Z,89.20
2022-09-24T10:11:04.777Z,88.80
2022-09-24T10:13:33.094Z,89.00
2022-09-24T10:16:04.232Z,88.80
2022-09-24T10:18:35.327Z,88.90
2022-09-24T10:21:09.700Z,89.00
2022-09-24T10:23:40.150Z,89.00
2022-09-24T10:26:09.084Z,89.00
2022-09-24T10:29:00.715Z,89.00
2022-09-24T10:31:32.796Z,89.10
2022-09-24T10:34:02.577Z,89.30
2022-09-24T10:36:33.657Z,89.30
2022-09-24T10:39:10.369Z,89.50
2022-09-24T10:41:38.768Z,89.70
2022-09-24T10:44:12.181Z,89.60
2022-09-24T10:47:09.031Z,89.60
2022-09-24T10:50:00.833Z,89.90
2022-09-24T10:52:54.851Z,89.60
2022-09-24T10:55:40.894Z,89.50
2022-09-24T10:58:34.960Z,89.50
2022-09-24T11:01:15.479Z,89.60
2022-09-24T11:03:57.175Z,89.50
2022-09-24T11:06:38.212Z,89.60
2022-09-24T11:09:19.021Z,89.50
2022-09-24T11:11:56.947Z,89.40
2022-09-24T11:14:46.657Z,89.30
2022-09-24T11:17:33.235Z,89.40
2022-09-24T11:20:16.360Z,89.50
2022-09-24T11:23:08.252Z,89.50
2022-09-24T11:25:45.872Z,90.20
2022-09-24T11:28:29.728Z,90.00
2022-09-24T11:31:07.528Z,90.10
2022-09-24T11:33:54.128Z,90.10
2022-09-24T11:36:34.996Z,90.20
2022-09-24T11:39:21.320Z,90.20
2022-09-24T11:41:59.915Z,90.20
2022-09-24T11:44:56.744Z,90.10
2022-09-24T11:47:37.837Z,90.20
2022-09-24T11:50:21.988Z,90.10
2022-09-24T11:52:54.975Z,90.20
2022-09-24T11:55:31.811Z,90.10
2022-09-24T11:58:13.544Z,90.00
2022-09-24T12:00:47.534Z,90.10
2022-09-24T12:03:25.907Z,90.20
2022-09-24T12:06:00.639Z,90.10
2022-09-24T12:08:33.614Z,90.20
2022-09-24T12:11:05.582Z,90.10
2022-09-24T12:13:41.299Z,90.40
2022-09-24T12:16:14.457Z,90.80
2022-09-24T12:18:51.436Z,90.20
2022-09-24T12:21:23.535Z,90.00
2022-09-24T12:23:56.240Z,89.50
2022-09-24T12:26:32.283Z,89.00
2022-09-24T12:29:25.758Z,88.70
2022-09-24T12:32:16.428Z,88.80
2022-09-24T12:34:51.942Z,89.00
2022-09-24T12:37:24.723Z,89.20
2022-09-24T12:40:01.111Z,89.50
2022-09-24T12:42:35.393Z,89.50
2022-09-24T12:45:10.544Z,89.70
2022-09-24T12:47:48.084Z,89.90
2022-09-24T12:50:23.948Z,90.00
2022-09-24T12:52:52.474Z,89.90
2022-09-24T12:55:23.116Z,89.30
2022-09-24T12:57:54.204Z,89.60
2022-09-24T13:00:40.952Z,89.50
2022-09-24T13:03:24.482Z,89.90
2022-09-24T13:05:52.642Z,89.60
2022-09-24T13:08:28.284Z,89.70
2022-09-24T13:10:58.846Z,90.10
2022-09-24T13:13:29.357Z,90.00
2022-09-24T13:16:04.896Z,90.00
2022-09-24T13:18:34.733Z,90.10
2022-09-24T13:21:06.027Z,90.10
2022-09-24T13:23:48.397Z,90.10
2022-09-24T13:26:33.728Z,90.30
2022-09-24T13:29:03.509Z,90.40
2022-09-24T13:31:41.572Z,90.30
2022-09-24T13:34:20.896Z,90.30
2022-09-24T13:36:54.283Z,90.40
2022-09-24T13:39:25.961Z,90.40
2022-09-24T13:42:01.483Z,90.30
2022-09-24T13:44:32.629Z,90.30
2022-09-24T13:47:06.447Z,90.40
2022-09-24T13:49:35.757Z,90.40
2022-09-24T13:52:14.054Z,90.30
2022-09-24T13:54:50.337Z,90.40
2022-09-24T13:57:23.493Z,90.30
2022-09-24T14:00:01.931Z,90.50
2022-09-24T14:02:35.090Z,90.40
2022-09-24T14:05:03.612Z,90.60
2022-09-24T14:07:31.849Z,90.40
2022-09-24T14:10:09.090Z,90.30
2022-09-24T14:12:37.392Z,90.60
2022-09-24T14:15:14.503Z,90.40
2022-09-24T14:20:19.780Z,90.40
2022-09-24T14:22:48.356Z,90.70
2022-09-24T14:25:19.730Z,90.90
2022-09-24T14:27:50.734Z,90.60
2022-09-24T14:30:22.347Z,90.60
2022-09-24T14:32:54.503Z,90.60
2022-09-24T14:35:29.990Z,90.60
2022-09-24T14:38:04.417Z,90.70
2022-09-24T14:40:41.840Z,90.60
2022-09-24T14:43:19.153Z,90.70
2022-09-24T14:45:48.476Z,90.70
2022-09-24T14:48:26.956Z,90.50
2022-09-24T14:50:57.124Z,90.60
2022-09-24T14:53:28.149Z,90.60
2022-09-24T14:55:57.379Z,91.10
2022-09-24T14:58:33.268Z,90.70
2022-09-24T15:01:03.259Z,90.70
2022-09-24T15:03:38.402Z,91.10
2022-09-24T15:06:19.085Z,91.30
2022-09-24T15:08:58.058Z,91.20
2022-09-24T15:11:28.801Z,91.10
2022-09-24T15:14:02.687Z,90.80
2022-09-24T15:16:33.605Z,90.90
2022-09-24T15:19:19.615Z,90.70
2022-09-24T15:21:50.863Z,90.80
2022-09-24T15:24:20.451Z,90.20
2022-09-24T15:26:51.025Z,90.70
2022-09-24T15:29:24.881Z,90.60
2022-09-24T15:31:53.442Z,90.40
2022-09-24T15:34:21.956Z,90.20
2022-09-24T15:36:55.374Z,90.10
2022-09-24T15:39:23.623Z,90.20
2022-09-24T15:41:51.699Z,90.00
2022-09-24T15:44:23.049Z,89.50
2022-09-24T15:46:52.209Z,89.60
2022-09-24T15:49:22.196Z,89.50
2022-09-24T15:51:54.356Z,89.40
2022-09-24T15:54:24.828Z,89.00
2022-09-24T15:56:53.168Z,89.20
2022-09-24T15:59:23.581Z,88.90
2022-09-24T16:01:55.712Z,89.80
2022-09-24T16:04:23.900Z,88.60
2022-09-24T16:06:53.354Z,88.50
2022-09-24T16:09:22.172Z,88.50
2022-09-24T16:11:50.236Z,88.20
2022-09-24T16:14:18.488Z,88.20
2022-09-24T16:16:46.735Z,87.90
2022-09-24T16:19:14.975Z,87.80
2022-09-24T16:21:43.193Z,87.90
2022-09-24T16:24:12.557Z,87.80
2022-09-24T16:26:40.556Z,87.80
2022-09-24T16:29:10.410Z,87.70
2022-09-24T16:31:38.581Z,87.50
2022-09-24T16:34:06.767Z,87.60
2022-09-24T16:36:34.923Z,87.80
2022-09-24T16:39:03.140Z,87.60
2022-09-24T16:41:34.598Z,87.80
2022-09-24T16:44:03.010Z,87.70
2022-09-24T16:46:31.511Z,87.60
2022-09-24T16:49:00.084Z,87.50
2022-09-24T16:51:28.128Z,87.40
2022-09-24T16:53:56.729Z,87.50
2022-09-24T16:56:24.973Z,87.50
2022-09-24T16:58:54.723Z,84.40
2022-09-24T17:01:23.257Z,87.50
2022-09-24T17:03:55.440Z,87.70
2022-09-24T17:06:25.321Z,87.50
2022-09-24T17:09:11.519Z,87.20
2022-09-24T17:11:40.690Z,87.70
2022-09-24T17:14:12.482Z,87.30
2022-09-24T17:16:41.086Z,87.50
2022-09-24T17:19:09.849Z,87.10
2022-09-24T17:21:40.298Z,87.50
2022-09-24T17:24:09.349Z,87.00
2022-09-24T17:26:39.241Z,87.30
2022-09-24T17:29:07.362Z,86.90
2022-09-24T17:31:36.976Z,86.90
2022-09-24T17:34:07.181Z,87.20
2022-09-24T17:36:36.188Z,86.90
2022-09-24T17:39:05.470Z,86.80
2022-09-24T17:41:34.104Z,87.10
2022-09-24T17:44:02.459Z,87.20
2022-09-24T17:46:32.043Z,87.30
2022-09-24T17:49:02.143Z,87.20
2022-09-24T17:51:32.956Z,87.20
2022-09-24T17:54:02.669Z,87.30
2022-09-24T17:56:33.102Z,87.40
2022-09-24T17:59:01.800Z,87.60
2022-09-24T18:01:33.434Z,87.60
2022-09-24T18:04:04.172Z,88.00
2022-09-24T18:06:33.626Z,88.00
2022-09-24T18:09:02.538Z,87.90
2022-09-24T18:11:33.332Z,88.10
2022-09-24T18:14:02.582Z,88.00
2022-09-24T18:16:32.467Z,87.80
2022-09-24T18:19:03.732Z,87.60
2022-09-24T18:21:31.978Z,87.30
2022-09-24T18:24:01.188Z,86.70
2022-09-24T18:26:32.562Z,86.10
2022-09-24T18:29:03.919Z,85.90
2022-09-24T18:31:32.930Z,85.50
2022-09-24T18:34:05.145Z,85.50
2022-09-24T18:36:34.926Z,85.40
2022-09-24T18:41:32.059Z,85.30
2022-09-24T18:44:01.133Z,84.90
2022-09-24T18:46:31.419Z,84.70
2022-09-24T18:49:00.355Z,84.40
2022-09-24T18:51:31.383Z,84.30
2022-09-24T18:54:00.799Z,84.30
2022-09-24T18:56:29.015Z,84.40
2022-09-24T18:58:57.952Z,84.20
2022-09-24T19:06:23.637Z,84.30
2022-09-24T19:08:52.942Z,84.20
2022-09-24T19:13:51.053Z,84.00
2022-09-24T19:16:20.848Z,83.80
2022-09-24T19:21:17.186Z,83.50
2022-09-24T19:23:47.387Z,83.40
2022-09-24T19:26:18.876Z,83.30
2022-09-24T19:28:50.459Z,83.00
2022-09-24T19:31:21.820Z,83.20
2022-09-24T19:36:18.922Z,83.20
2022-09-24T19:41:21.327Z,83.10
2022-09-24T19:46:20.613Z,83.50
2022-09-24T19:48:50.331Z,83.60
2022-09-24T19:51:20.542Z,83.80
2022-09-24T19:53:49.594Z,83.90
2022-09-24T19:56:22.288Z,83.80
2022-09-24T19:58:52.710Z,86.80
2022-09-24T20:01:21.930Z,83.90
2022-09-24T20:03:50.667Z,84.00
2022-09-24T20:06:21.070Z,83.90
2022-09-24T20:11:20.923Z,83.90
2022-09-24T20:13:49.937Z,83.90
2022-09-24T20:16:19.597Z,83.80
2022-09-24T20:21:18.333Z,84.00
2022-09-24T20:23:47.940Z,84.10
2022-09-24T20:26:35.633Z,84.00
2022-09-24T20:29:05.821Z,83.80
2022-09-24T20:34:02.143Z,83.90
2022-09-24T20:36:30.194Z,84.10
2022-09-24T20:38:59.814Z,84.20
2022-09-24T20:41:29.200Z,84.30
2022-09-24T20:43:57.042Z,84.40
2022-09-24T20:46:26.532Z,84.50
2022-09-24T20:48:58.015Z,85.00
2022-09-24T20:51:27.855Z,84.80
2022-09-24T20:53:56.251Z,85.10
2022-09-24T20:56:24.407Z,84.90
2022-09-24T20:58:54.817Z,84.80
2022-09-24T21:01:24.287Z,87.60
2022-09-24T21:03:52.798Z,86.40
2022-09-24T21:06:22.866Z,84.50
2022-09-24T21:08:52.314Z,84.50
2022-09-24T21:11:22.416Z,84.50
2022-09-24T21:13:51.754Z,84.70
2022-09-24T21:16:23.731Z,84.60
2022-09-24T21:18:54.150Z,84.70
2022-09-24T21:21:23.927Z,84.80
2022-09-24T21:23:53.890Z,84.80
2022-09-24T21:26:25.740Z,85.00
2022-09-24T21:28:55.960Z,85.10
2022-09-24T21:31:27.560Z,84.80
2022-09-24T21:33:55.482Z,86.70
2022-09-24T21:36:25.711Z,84.80
2022-09-24T21:38:57.067Z,85.20
2022-09-24T21:41:26.300Z,84.80
2022-09-24T21:43:55.499Z,85.00
2022-09-24T21:46:26.106Z,84.90
2022-09-24T21:48:55.902Z,85.20
2022-09-24T21:51:26.837Z,84.70
2022-09-24T21:53:57.649Z,85.10
2022-09-24T21:56:25.512Z,85.10
2022-09-24T21:58:54.167Z,84.80
2022-09-24T22:01:26.018Z,85.00
2022-09-24T22:03:56.405Z,85.00
2022-09-24T22:06:28.668Z,85.00
2022-09-24T22:08:57.814Z,84.90
2022-09-24T22:11:27.402Z,84.90
2022-09-24T22:14:00.941Z,84.70
2022-09-24T22:16:29.218Z,84.80
2022-09-24T22:18:59.143Z,86.30
2022-09-24T22:21:27.336Z,84.80
2022-09-24T22:23:56.557Z,84.50
2022-09-24T22:26:26.116Z,84.70
2022-09-24T22:28:55.245Z,84.40
2022-09-24T22:31:23.560Z,84.40
2022-09-24T22:34:20.652Z,84.30
2022-09-24T22:36:50.241Z,84.20
2022-09-24T22:39:18.274Z,86.60
2022-09-24T22:41:46.401Z,84.10
2022-09-24T22:44:14.349Z,84.20
2022-09-24T22:46:42.358Z,84.20
2022-09-24T22:49:10.989Z,84.20
2022-09-24T22:51:39.493Z,84.60
2022-09-24T22:54:10.489Z,84.50
2022-09-24T22:56:38.492Z,84.30
2022-09-24T22:59:06.690Z,84.40
2022-09-24T23:01:39.457Z,84.40
2022-09-24T23:04:07.499Z,84.50
2022-09-24T23:06:35.462Z,84.10
2022-09-24T23:09:04.078Z,84.20
2022-09-24T23:11:34.980Z,84.40
2022-09-24T23:14:04.825Z,84.50
2022-09-24T23:16:34.659Z,84.40
2022-09-24T23:19:04.316Z,84.30
2022-09-24T23:21:33.537Z,84.20
2022-09-24T23:24:03.437Z,86.00
2022-09-24T23:26:32.959Z,84.40
2022-09-24T23:29:01.683Z,84.50
2022-09-24T23:31:31.438Z,84.30
2022-09-24T23:34:01.810Z,84.60
2022-09-24T23:36:31.946Z,84.50
2022-09-24T23:39:00.726Z,87.10
2022-09-24T23:41:30.877Z,84.50
2022-09-24T23:44:00.368Z,84.50
2022-09-24T23:46:28.568Z,86.00
2022-09-24T23:48:57.105Z,84.30
2022-09-24T23:51:28.126Z,84.30
2022-09-24T23:53:56.096Z,84.50
2022-09-24T23:56:24.096Z,84.50
2022-09-24T23:58:52.242Z,84.30
